Time;durP1;ratioP1;P1;durP2;ratioP2;P2;SDS_P1;SDS_P2;PMS_P1;PMS_P2;Temp;Humidity;BMP_temperature;BMP_pressure;BME280_temperature;BME280_humidity;BME280_pressure;Samples;Min_cycle;Max_cycle;Signal;HPM_P1;HPM_P2
2022/06/30 00:01:22;;;;;;;;;;;;;;;;;;5075659;28;19911;-55
2022/06/30 00:03:47;;;;;;;;;;;;;;;;;;5079503;28;19936;-54
2022/06/30 00:06:13;;;;;;;;;;;;;;;;;;5069098;28;19914;-54
2022/06/30 00:08:39;;;;;;;;;;;;;;;;;;5068855;28;20353;-55
2022/06/30 00:11:08;;;;;;;;;;;;;;;;;;5071359;28;19915;-53
2022/06/30 00:13:34;;;;;;;;;;;;;;;;;;5089152;28;19907;-53
2022/06/30 00:16:00;;;;;;;;;;;;;;;;;;5088805;28;19904;-53
2022/06/30 00:18:26;;;;;;;;;;;;;;;;;;5086469;28;19908;-53
2022/06/30 00:20:53;;;;;;;;;;;;;;;;;;5088792;28;19911;-54
2022/06/30 00:23:19;;;;;;;;;;;;;;;;;;5089185;28;19911;-54
2022/06/30 00:25:45;;;;;;;;;;;;;;;;;;5088082;28;19930;-53
2022/06/30 00:28:11;;;;;;;;;;;;;;;;;;5088801;28;19911;-54
2022/06/30 00:30:37;;;;;;;;;;;;;;;;;;5088680;28;19908;-53
2022/06/30 00:33:02;;;;;;;;;;;;;;;;;;5076539;28;19909;-54
2022/06/30 00:35:29;;;;;;;;;;;;;;;;;;5068177;28;19912;-55
2022/06/30 00:37:55;;;;;;;;;;;;;;;;;;5067529;28;19915;-54
2022/06/30 00:40:21;;;;;;;;;;;;;;;;;;5068432;28;20291;-54
2022/06/30 00:42:47;;;;;;;;;;;;;;;;;;5068352;28;19916;-54
2022/06/30 00:45:13;;;;;;;;;;;;;;;;;;5068518;28;19935;-54
2022/06/30 00:47:39;;;;;;;;;;;;;;;;;;5067535;28;19908;-55
2022/06/30 00:50:05;;;;;;;;;;;;;;;;;;5068238;28;19908;-54
2022/06/30 00:52:33;;;;;;;;;;;;;;;;;;5070300;28;19958;-54
2022/06/30 00:54:59;;;;;;;;;;;;;;;;;;5088723;28;19915;-54
2022/06/30 00:57:25;;;;;;;;;;;;;;;;;;5088344;28;19916;-53
2022/06/30 00:59:50;;;;;;;;;;;;;;;;;;5087999;28;20365;-54
2022/06/30 01:02:17;;;;;;;;;;;;;;;;;;5088671;28;19908;-54
2022/06/30 01:04:42;;;;;;;;;;;;;;;;;;5088060;28;20357;-53
2022/06/30 01:07:08;;;;;;;;;;;;;;;;;;5086173;28;19996;-55
2022/06/30 01:15:03;;;;;;;;;;;;;;;;;;5067771;28;20049;-54
2022/06/30 01:17:29;;;;;;;;;;;;;;;;;;5067244;28;20019;-53
2022/06/30 01:19:55;;;;;;;;;;;;;;;;;;5067775;28;19919;-51
2022/06/30 01:22:21;;;;;;;;;;;;;;;;;;5067553;28;19978;-54
2022/06/30 01:24:47;;;;;;;;;;;;;;;;;;5067520;28;19941;-54
2022/06/30 01:27:13;;;;;;;;;;;;;;;;;;5071227;28;19907;-53
2022/06/30 01:29:39;;;;;;;;;;;;;;;;;;5087464;28;19915;-54
2022/06/30 01:32:06;;;;;;;;;;;;;;;;;;5087652;28;19908;-54
2022/06/30 01:34:31;;;;;;;;;;;;;;;;;;5086973;28;19904;-54
2022/06/30 01:36:59;;;;;;;;;;;;;;;;;;5086839;28;19907;-55
2022/06/30 01:39:25;;;;;;;;;;;;;;;;;;5066292;28;20288;-53
2022/06/30 01:41:51;;;;;;;;;;;;;;;;;;5066982;28;19911;-54
2022/06/30 01:44:18;;;;;;;;;;;;;;;;;;5067529;28;19922;-54
2022/06/30 01:46:44;;;;;;;;;;;;;;;;;;5067064;28;19912;-54
2022/06/30 01:49:11;;;;;;;;;;;;;;;;;;5066230;28;20438;-54
2022/06/30 01:51:36;;;;;;;;;;;;;;;;;;5066986;28;20345;-54
2022/06/30 01:54:03;;;;;;;;;;;;;;;;;;5066841;28;19905;-55
2022/06/30 01:56:29;;;;;;;1.33;0.80;;;;;;;;;;5065323;28;20459;-52
2022/06/30 01:58:55;;;;;;;1.48;1.08;;;;;;;;;;5066646;28;20049;-53
2022/06/30 02:01:21;;;;;;;0.73;0.60;;;;;;;;;;5066665;28;20115;-52
2022/06/30 02:03:47;;;;;;;1.60;0.70;;;;;;;;;;5071478;28;20088;-52
2022/06/30 02:06:13;;;;;;;0.70;0.70;;;;;;;;;;5086762;28;20028;-53
2022/06/30 02:08:39;;;;;;;0.93;0.85;;;;;;;;;;5086533;28;20536;-53
2022/06/30 02:11:05;;;;;;;0.80;0.70;;;;;;;;;;5086670;28;20048;-53
2022/06/30 02:13:31;;;;;;;0.93;0.80;;;;;;;;;;5086627;28;20031;-50
2022/06/30 02:15:57;;;;;;;0.75;0.70;;;;;;;;;;5086260;28;20032;-53
2022/06/30 02:18:24;;;;;;;0.80;0.80;;;;;;;;;;5085520;28;20292;-52
2022/06/30 02:20:50;;;;;;;0.77;0.70;;;;;;;;;;5086732;28;20335;-51
2022/06/30 02:23:16;;;;;;;0.60;0.52;;;;;;;;;;5086857;28;20149;-52
2022/06/30 02:25:42;;;;;;;1.17;1.00;;;;;;;;;;5086468;28;20103;-51
2022/06/30 02:28:09;;;;;;;1.20;0.77;;;;;;;;;;5086688;28;20028;-53
2022/06/30 02:30:35;;;;;;;1.33;0.63;;;;;;;;;;5086045;28;20601;-52
2022/06/30 02:33:01;;;;;;;1.00;0.75;;;;;;;;;;5084005;28;20600;-50
2022/06/30 02:35:27;;;;;;;0.70;0.70;;;;;;;;;;5086165;28;20032;-50
2022/06/30 02:37:53;;;;;;;1.10;1.00;;;;;;;;;;5086429;28;20212;-53
2022/06/30 02:40:21;;;;;;;1.23;0.85;;;;;;;;;;5077479;28;20390;-51
2022/06/30 02:42:48;;;;;;;0.70;0.70;;;;;;;;;;5066351;28;20483;-52
2022/06/30 02:45:14;;;;;;;3.75;0.90;;;;;;;;;;5065960;28;20021;-52
2022/06/30 02:47:42;;;;;;;1.67;1.00;;;;;;;;;;5066962;28;20032;-52
2022/06/30 02:50:10;;;;;;;0.80;0.75;;;;;;;;;;5070148;28;20025;-52
2022/06/30 02:52:37;;;;;;;0.85;0.60;;;;;;;;;;5069726;28;20032;-51
2022/06/30 02:55:04;;;;;;;2.13;0.90;;;;;;;;;;5076474;28;20099;-52
2022/06/30 02:57:31;;;;;;;0.85;0.82;;;;;;;;;;5089956;28;20039;-51
2022/06/30 02:59:57;;;;;;;1.20;0.80;;;;;;;;;;5089913;28;20437;-51
2022/06/30 03:02:23;;;;;;;1.00;0.80;;;;;;;;;;5089929;28;20081;-53
2022/06/30 03:04:49;;;;;;;0.77;0.68;;;;;;;;;;5077265;28;20510;-53
2022/06/30 03:07:16;;;;;;;1.67;0.70;;;;;;;;;;5070005;28;20036;-50
2022/06/30 03:09:43;;;;;;;0.75;0.70;;;;;;;;;;5069418;28;20028;-53
2022/06/30 03:12:09;;;;;;;0.63;0.63;;;;;;;;;;5069601;28;20039;-52
2022/06/30 03:14:35;;;;;;;0.65;0.60;;;;;;;;;;5069514;28;20122;-51
2022/06/30 03:17:02;;;;;;;1.02;0.90;;;;;;;;;;5068298;28;20067;-52
2022/06/30 03:19:28;;;;;;;0.65;0.65;;;;;;;;;;5069288;28;20046;-52
2022/06/30 03:21:55;;;;;;;0.50;0.50;;;;;;;;;;5069294;28;20051;-53
2022/06/30 03:24:21;;;;;;;0.60;0.60;;;;;;;;;;5069146;28;20104;-51
2022/06/30 03:26:48;;;;;;;0.65;0.60;;;;;;;;;;5068543;28;20170;-52
2022/06/30 03:29:14;;;;;;;0.90;0.70;;;;;;;;;;5069053;28;20020;-53
2022/06/30 03:31:41;;;;;;;0.98;0.63;;;;;;;;;;5069060;28;20310;-51
2022/06/30 03:34:07;;;;;;;1.67;0.77;;;;;;;;;;5069031;28;20021;-53
2022/06/30 03:36:34;;;;;;;0.50;0.50;;;;;;;;;;5069084;28;20090;-50
2022/06/30 03:39:00;;;;;;;0.60;0.60;;;;;;;;;;5069007;28;20032;-52
2022/06/30 03:41:26;;;;;;;2.20;0.77;;;;;;;;;;5069117;28;20028;-51
2022/06/30 03:43:52;;;;;;;0.73;0.73;;;;;;;;;;5069102;28;20031;-49
2022/06/30 03:46:19;;;;;;;0.63;0.63;;;;;;;;;;5068920;28;20016;-52
2022/06/30 03:48:45;;;;;;;0.52;0.50;;;;;;;;;;5069167;28;20025;-50
2022/06/30 03:51:11;;;;;;;0.90;0.77;;;;;;;;;;5069075;28;20032;-52
2022/06/30 03:53:37;;;;;;;0.80;0.70;;;;;;;;;;5068830;28;20557;-52
2022/06/30 03:56:03;;;;;;;0.70;0.70;;;;;;;;;;5069028;28;20044;-52
2022/06/30 03:58:29;;;;;;;1.23;0.73;;;;;;;;;;5068037;28;20426;-53
2022/06/30 04:00:56;;;;;;;1.10;0.80;;;;;;;;;;5067861;28;20028;-52
2022/06/30 04:03:22;;;;;;;1.35;0.98;;;;;;;;;;5068357;28;20017;-53
2022/06/30 04:05:49;;;;;;;1.88;0.90;;;;;;;;;;5069006;28;20028;-51
2022/06/30 04:08:15;;;;;;;1.88;0.70;;;;;;;;;;5068310;28;20061;-51
2022/06/30 04:10:42;;;;;;;0.80;0.80;;;;;;;;;;5068489;28;20033;-50
2022/06/30 04:13:08;;;;;;;0.85;0.77;;;;;;;;;;5068481;28;20025;-53
2022/06/30 04:15:35;;;;;;;1.13;1.02;;;;;;;;;;5068056;28;20028;-52
2022/06/30 04:18:02;;;;;;;0.90;0.70;;;;;;;;;;5068216;28;20566;-51
2022/06/30 04:20:29;;;;;;;1.80;0.95;;;;;;;;;;5068294;28;20070;-50
2022/06/30 04:22:56;;;;;;;0.80;0.80;;;;;;;;;;5068328;28;20390;-53
2022/06/30 04:25:23;;;;;;;1.27;0.95;;;;;;;;;;5068206;28;20024;-51
2022/06/30 04:27:52;;;;;;;1.10;1.00;;;;;;;;;;5068633;28;20474;-53
2022/06/30 04:33:05;;;;;;;1.02;0.85;;;;;;;;;;5026714;28;20037;-52
2022/06/30 04:35:31;;;;;;;2.15;0.80;;;;;;;;;;5067762;28;20102;-53
2022/06/30 04:37:58;;;;;;;1.20;0.80;;;;;;;;;;5068176;28;20028;-52
2022/06/30 04:43:08;;;;;;;1.20;1.08;;;;;;;;;;5067949;28;20032;-53
2022/06/30 04:45:35;;;;;;;1.20;1.00;;;;;;;;;;5067601;28;20096;-51
2022/06/30 04:48:03;;;;;;;0.82;0.80;;;;;;;;;;5067870;28;20032;-50
2022/06/30 04:50:29;;;;;;;1.05;0.90;;;;;;;;;;5067729;28;20109;-52
2022/06/30 04:52:55;;;;;;;0.88;0.73;;;;;;;;;;5067993;28;20292;-51
2022/06/30 04:55:21;;;;;;;1.40;1.00;;;;;;;;;;5067283;28;20075;-52
2022/06/30 04:57:48;;;;;;;2.67;1.05;;;;;;;;;;5067604;28;20046;-49
2022/06/30 05:00:14;;;;;;;0.82;0.80;;;;;;;;;;5067161;28;20035;-52
2022/06/30 05:02:40;;;;;;;;;;;;;;;;;;5068070;28;20044;-55
2022/06/30 05:05:06;;;;;;;;;;;;;;;;;;5067867;28;19909;-53
2022/06/30 05:07:32;;;;;;;;;;;;;;;;;;5067548;28;19912;-54
2022/06/30 05:09:58;;;;;;;;;;;;;;;;;;5067888;28;20375;-54
2022/06/30 05:12:24;;;;;;;;;;;;;;;;;;5068700;28;19919;-55
2022/06/30 05:14:51;;;;;;;;;;;;;;;;;;5069122;28;20473;-55
2022/06/30 05:17:16;;;;;;;;;;;;;;;;;;5068788;28;19916;-54
2022/06/30 05:19:42;;;;;;;;;;;;;;;;;;5069380;28;19995;-54
2022/06/30 05:22:08;;;;;;;;;;;;;;;;;;5068553;28;19904;-53
2022/06/30 05:27:19;;;;;;;;;;;;;;;;;;5068918;28;19966;-52
2022/06/30 05:29:45;;;;;;;;;;;;;;;;;;5068830;28;20262;-54
2022/06/30 05:32:11;;;;;;;;;;;;;;;;;;5068750;28;19912;-54
2022/06/30 05:34:37;;;;;;;;;;;;;;;;;;5068663;28;20011;-52
2022/06/30 05:37:03;;;;;;;;;;;;;;;;;;5069066;28;20023;-54
2022/06/30 05:39:29;;;;;;;;;;;;;;;;;;5068463;28;20466;-53
2022/06/30 05:41:55;;;;;;;;;;;;;;;;;;5069087;28;19904;-54
2022/06/30 05:44:21;;;;;;;;;;;;;;;;;;5068512;28;19947;-53
2022/06/30 05:46:47;;;;;;;;;;;;;;;;;;5068683;28;19916;-54
2022/06/30 05:49:12;;;;;;;;;;;;;;;;;;5068740;28;19908;-54
2022/06/30 05:51:38;;;;;;;;;;;;;;;;;;5068884;28;19910;-54
2022/06/30 05:54:04;;;;;;;;;;;;;;;;;;5068097;28;19908;-54
2022/06/30 05:56:30;;;;;;;;;;;;;;;;;;5068255;28;20013;-53
2022/06/30 05:58:56;;;;;;;;;;;;;;;;;;5067800;28;19962;-54
2022/06/30 06:01:22;;;;;;;;;;;;;;;;;;5067915;28;20264;-54
2022/06/30 06:03:48;;;;;;;;;;;;;;;;;;5068565;28;20386;-53
2022/06/30 06:06:14;;;;;;;;;;;;;;;;;;5068068;28;19915;-53
2022/06/30 06:08:41;;;;;;;;;;;;;;;;;;5068366;28;19912;-54
2022/06/30 06:11:07;;;;;;;;;;;;;;;;;;5079749;28;19916;-54
2022/06/30 06:13:33;;;;;;;;;;;;;;;;;;5080081;28;19958;-54
2022/06/30 06:15:58;;;;;;;;;;;;;;;;;;5059007;28;19908;-54
2022/06/30 06:18:25;;;;;;;;;;;;;;;;;;5067823;28;19920;-54
2022/06/30 06:20:51;;;;;;;;;;;;;;;;;;5063185;28;19916;-52
2022/06/30 06:23:17;;;;;;;;;;;;;;;;;;5065443;28;19912;-52
2022/06/30 06:25:44;;;;;;;;;;;;;;;;;;5067797;28;20440;-53
2022/06/30 06:30:55;;;;;;;;;;;;;;;;;;5067618;28;20011;-53
2022/06/30 06:33:22;;;;;;;;;;;;;;;;;;5067584;28;19995;-54
2022/06/30 06:35:47;;;;;;;;;;;;;;;;;;5067980;28;19928;-53
2022/06/30 06:38:13;;;;;;;;;;;;;;;;;;5067578;28;19912;-54
2022/06/30 06:40:39;;;;;;;;;;;;;;;;;;5066520;28;19934;-52
2022/06/30 06:43:05;;;;;;;;;;;;;;;;;;5067719;28;19904;-54
2022/06/30 06:45:31;;;;;;;;;;;;;;;;;;5073467;28;19908;-53
2022/06/30 06:47:58;;;;;;;;;;;;;;;;;;5067897;28;20283;-54
2022/06/30 06:50:24;;;;;;;;;;;;;;;;;;5067583;28;19958;-53
2022/06/30 06:52:51;;;;;;;;;;;;;;;;;;5067649;28;19912;-52
2022/06/30 06:55:19;;;;;;;;;;;;;;;;;;5067828;28;19966;-52
2022/06/30 06:57:45;;;;;;;;;;;;;;;;;;5067535;28;19951;-52
2022/06/30 07:00:14;;;;;;;;;;;;;;;;;;5067188;28;19959;-53
2022/06/30 07:02:39;;;;;;;;;;;;;;;;;;5067629;28;19927;-52
2022/06/30 07:05:05;;;;;;;;;;;;;;;;;;5068252;28;20526;-53
2022/06/30 07:07:32;;;;;;;;;;;;;;;;;;5074938;28;19930;-51
2022/06/30 07:09:59;;;;;;;;;;;;;;;;;;5067414;28;19909;-53
2022/06/30 07:12:25;;;;;;;;;;;;;;;;;;5067415;28;19908;-52
2022/06/30 07:14:51;;;;;;;;;;;;;;;;;;5066991;28;19904;-52
2022/06/30 07:17:19;;;;;;;;;;;;;;;;;;5067475;28;20037;-54
2022/06/30 07:19:45;;;;;;;;;;;;;;;;;;5067689;28;20289;-51
2022/06/30 07:22:13;;;;;;;;;;;;;;;;;;5065460;28;19908;-52
2022/06/30 07:24:39;;;;;;;;;;;;;;;;;;5065196;28;19908;-53
2022/06/30 07:27:05;;;;;;;;;;;;;;;;;;5067381;28;19995;-53
2022/06/30 07:29:31;;;;;;;;;;;;;;;;;;5067134;28;19938;-53
2022/06/30 07:31:57;;;;;;;;;;;;;;;;;;5067025;28;19908;-52
2022/06/30 07:34:22;;;;;;;;;;;;;;;;;;5067640;28;20465;-54
2022/06/30 07:36:50;;;;;;;;;;;;;;;;;;5070840;28;19919;-53
2022/06/30 07:39:16;;;;;;;;;;;;;;;;;;5070905;28;19999;-54
2022/06/30 07:41:42;;;;;;;;;;;;;;;;;;5070823;28;19991;-52
2022/06/30 07:44:08;;;;;;;;;;;;;;;;;;5070413;28;19908;-53
2022/06/30 07:46:34;;;;;;;;;;;;;;;;;;5070332;28;19923;-50
2022/06/30 07:49:00;;;;;;;;;;;;;;;;;;5070667;28;20299;-52
2022/06/30 07:51:27;;;;;;;;;;;;;;;;;;5070324;28;19908;-51
2022/06/30 07:53:54;;;;;;;;;;;;;;;;;;5071020;28;19995;-53
2022/06/30 07:56:20;;;;;;;;;;;;;;;;;;5069957;28;19912;-53
2022/06/30 07:58:47;;;;;;;;;;;;;;;;;;5070444;28;19904;-52
2022/06/30 08:01:13;;;;;;;;;;;;;;;;;;5070100;28;20375;-53
2022/06/30 08:03:39;;;;;;;;;;;;;;;;;;5070345;28;19911;-53
2022/06/30 08:06:06;;;;;;;;;;;;;;;;;;5070257;28;19950;-53
2022/06/30 08:08:33;;;;;;;;;;;;;;;;;;5081838;28;19908;-50
2022/06/30 08:10:59;;;;;;;;;;;;;;;;;;5070271;28;19904;-50
2022/06/30 08:13:25;;;;;;;;;;;;;;;;;;5069836;28;19911;-51
2022/06/30 08:15:52;;;;;;;;;;;;;;;;;;5069598;28;19915;-52
2022/06/30 08:18:18;;;;;;;;;;;;;;;;;;5069731;28;19999;-53
2022/06/30 08:20:44;;;;;;;;;;;;;;;;;;5070190;28;20035;-53
2022/06/30 08:23:10;;;;;;;;;;;;;;;;;;5068636;28;19950;-54
2022/06/30 08:25:37;;;;;;;;;;;;;;;;;;5068863;28;20298;-51
2022/06/30 08:28:05;;;;;;;;;;;;;;;;;;5069691;28;19928;-54
2022/06/30 08:30:31;;;;;;;;;;;;;;;;;;5069253;28;19912;-54
2022/06/30 08:32:57;;;;;;;;;;;;;;;;;;5067731;28;19912;-53
2022/06/30 08:35:23;;;;;;;;;;;;;;;;;;5059196;28;20194;-51
2022/06/30 08:37:49;;;;;;;;;;;;;;;;;;5068446;28;19989;-53
2022/06/30 08:43:00;;;;;;;;;;;;;;;;;;5068199;28;19912;-51
2022/06/30 08:45:26;;;;;;;;;;;;;;;;;;5067799;28;20371;-49
2022/06/30 08:47:52;;;;;;;;;;;;;;;;;;5068394;28;19912;-53
2022/06/30 08:50:17;;;;;;;;;;;;;;;;;;5068279;28;20358;-54
2022/06/30 08:52:43;;;;;;;;;;;;;;;;;;5068327;28;19909;-52
2022/06/30 08:55:09;;;;;;;;;;;;;;;;;;5067953;28;19904;-53
2022/06/30 08:57:36;;;;;;;;;;;;;;;;;;5067509;28;19920;-53
2022/06/30 09:00:02;;;;;;;;;;;;;;;;;;5067949;28;20386;-53
2022/06/30 09:02:28;;;;;;;;;;;;;;;;;;5067623;28;19908;-54
2022/06/30 09:04:54;;;;;;;;;;;;;;;;;;5067865;28;19915;-53
2022/06/30 09:07:20;;;;;;;;;;;;;;;;;;5068062;28;19908;-53
2022/06/30 09:09:46;;;;;;;;;;;;;;;;;;5068178;28;19912;-53
2022/06/30 09:12:11;;;;;;;;;;;;;;;;;;5067725;28;19912;-54
2022/06/30 09:14:37;;;;;;;;;;;;;;;;;;5067729;28;19904;-53
2022/06/30 09:17:03;;;;;;;;;;;;;;;;;;5067706;28;19917;-51
2022/06/30 09:19:30;;;;;;;0.50;0.50;;;;;;;;;;5066502;28;20827;-51
2022/06/30 09:22:03;;;;;;;0.60;0.60;;;;;;;;;;5067152;28;20016;-49
2022/06/30 09:24:29;;;;;;;0.57;0.43;;;;;;;;;;5067314;28;20029;-49
2022/06/30 09:27:10;;;;;;;0.50;0.50;;;;;;;;;;5067199;28;20074;-48
2022/06/30 09:29:56;;;;;;;0.50;0.50;;;;;;;;;;5066938;28;20060;-49
2022/06/30 09:32:23;;;;;;;0.35;0.35;;;;;;;;;;5066761;28;20031;-50
2022/06/30 09:34:49;;;;;;;;;;;;;;;;;;5067605;28;20056;-53
2022/06/30 09:37:15;;;;;;;;;;;;;;;;;;5067218;28;19940;-54
2022/06/30 09:39:41;;;;;;;;;;;;;;;;;;5067080;28;19912;-54
2022/06/30 09:42:07;;;;;;;;;;;;;;;;;;5066732;28;19978;-55
2022/06/30 09:44:34;;;;;;;;;;;;;;;;;;5082113;28;19912;-54
2022/06/30 09:47:00;;;;;;;;;;;;;;;;;;5067746;28;19998;-55
2022/06/30 09:49:26;;;;;;;;;;;;;;;;;;5065429;28;20019;-54
2022/06/30 09:51:52;;;;;;;;;;;;;;;;;;5068754;28;19999;-55
2022/06/30 09:54:18;;;;;;;;;;;;;;;;;;5067631;28;19954;-55
2022/06/30 09:56:44;;;;;;;;;;;;;;;;;;5086666;28;19915;-54
2022/06/30 09:59:10;;;;;;;;;;;;;;;;;;5088405;28;20087;-54
2022/06/30 10:01:36;;;;;;;;;;;;;;;;;;5085425;28;19961;-53
2022/06/30 10:04:05;;;;;;;;;;;;;;;;;;5068239;28;19910;-53
2022/06/30 10:06:31;;;;;;;;;;;;;;;;;;5068195;28;19908;-51
2022/06/30 10:08:57;;;;;;;;;;;;;;;;;;5067150;28;19915;-54
2022/06/30 10:11:23;;;;;;;;;;;;;;;;;;5080731;28;19998;-53
2022/06/30 10:13:49;;;;;;;;;;;;;;;;;;5066048;28;19912;-52
2022/06/30 10:16:15;;;;;;;;;;;;;;;;;;5066644;28;20599;-53
2022/06/30 10:18:41;;;;;;;;;;;;;;;;;;5066866;28;19997;-54
2022/06/30 10:21:10;;;;;;;;;;;;;;;;;;5066676;28;19975;-54
2022/06/30 10:23:36;;;;;;;;;;;;;;;;;;5066594;28;20503;-54
2022/06/30 10:26:06;;;;;;;;;;;;;;;;;;5067065;28;19904;-54
2022/06/30 10:28:33;;;;;;;;;;;;;;;;;;5073311;28;19915;-54
2022/06/30 10:31:00;;;;;;;;;;;;;;;;;;5087012;28;19908;-54
2022/06/30 10:33:26;;;;;;;;;;;;;;;;;;5086613;28;20314;-53
2022/06/30 10:35:52;;;;;;;;;;;;;;;;;;5086709;28;19997;-56
2022/06/30 10:38:18;;;;;;;;;;;;;;;;;;5087026;28;19993;-54
2022/06/30 10:40:44;;;;;;;;;;;;;;;;;;5067803;28;19916;-54
2022/06/30 10:43:10;;;;;;;;;;;;;;;;;;5067946;28;19909;-55
2022/06/30 10:45:36;;;;;;;;;;;;;;;;;;5067805;28;19904;-55
2022/06/30 10:48:02;;;;;;;;;;;;;;;;;;5068251;28;19916;-55
2022/06/30 10:50:28;;;;;;;;;;;;;;;;;;5067680;28;19908;-55
2022/06/30 10:52:54;;;;;;;;;;;;;;;;;;5068026;28;19905;-57
2022/06/30 10:55:19;;;;;;;;;;;;;;;;;;5068201;28;19975;-53
2022/06/30 10:57:45;;;;;;;;;;;;;;;;;;5067593;28;19916;-52
2022/06/30 11:00:11;;;;;;;;;;;;;;;;;;5067826;28;19921;-52
2022/06/30 11:02:38;;;;;;;;;;;;;;;;;;5068072;28;20369;-49
2022/06/30 11:05:03;;;;;;;;;;;;;;;;;;5068036;28;19904;-54
2022/06/30 11:07:29;;;;;;;;;;;;;;;;;;5072402;28;19973;-50
2022/06/30 11:09:57;;;;;;;;;;;;;;;;;;5069895;28;19916;-50
2022/06/30 11:12:26;;;;;;;;;;;;;;;;;;5070096;28;19908;-50
2022/06/30 11:14:53;;;;;;;;;;;;;;;;;;5071500;28;19911;-54
2022/06/30 11:17:19;;;;;;;;;;;;;;;;;;5069477;28;20337;-52
2022/06/30 11:19:46;;;;;;;;;;;;;;;;;;5071585;28;19938;-50
2022/06/30 11:22:12;;;;;;;;;;;;;;;;;;5071552;28;19983;-49
2022/06/30 11:24:38;;;;;;;;;;;;;;;;;;5070139;28;20008;-51
2022/06/30 11:27:23;;;;;;;;;;;;;;;;;;5071041;28;19943;-55
2022/06/30 11:29:49;;;;;;;;;;;;;;;;;;5069898;28;20058;-52
2022/06/30 11:32:15;;;;;;;;;;;;;;;;;;5069803;28;19996;-53
2022/06/30 11:34:41;;;;;;;;;;;;;;;;;;5070389;28;19904;-53
2022/06/30 11:37:07;;;;;;;;;;;;;;;;;;5070086;28;19919;-55
2022/06/30 11:39:33;;;;;;;;;;;;;;;;;;5069434;28;19919;-55
2022/06/30 11:42:06;;;;;;;;;;;;;;;;;;5069339;28;19908;-53
2022/06/30 11:44:35;;;;;;;;;;;;;;;;;;5070857;28;19904;-54
2022/06/30 11:47:01;;;;;;;;;;;;;;;;;;5070798;28;19937;-53
2022/06/30 11:49:28;;;;;;;;;;;;;;;;;;5069857;28;19922;-49
2022/06/30 11:51:54;;;;;;;;;;;;;;;;;;5069101;28;19905;-53
2022/06/30 11:54:19;;;;;;;;;;;;;;;;;;5073077;28;20301;-55
2022/06/30 11:56:45;;;;;;;;;;;;;;;;;;5069639;28;19966;-54
2022/06/30 11:59:12;;;;;;;;;;;;;;;;;;5069352;28;19939;-51
2022/06/30 12:01:37;;;;;;;;;;;;;;;;;;5069245;28;19912;-54
2022/06/30 12:04:03;;;;;;;;;;;;;;;;;;5070762;28;19905;-56
2022/06/30 12:06:29;;;;;;;;;;;;;;;;;;5069986;28;19908;-55
2022/06/30 12:08:55;;;;;;;;;;;;;;;;;;5070174;28;20037;-55
2022/06/30 12:11:21;;;;;;;;;;;;;;;;;;5069928;28;19974;-55
2022/06/30 12:13:47;;;;;;;;;;;;;;;;;;5067787;28;20370;-53
2022/06/30 12:16:13;;;;;;;;;;;;;;;;;;5068497;28;19904;-56
2022/06/30 12:18:41;;;;;;;;;;;;;;;;;;5070181;28;19939;-55
2022/06/30 12:21:07;;;;;;;;;;;;;;;;;;5069363;28;20002;-55
2022/06/30 12:23:33;;;;;;;;;;;;;;;;;;5068741;28;20291;-56
2022/06/30 12:26:00;;;;;;;;;;;;;;;;;;5069916;28;19904;-57
2022/06/30 12:28:25;;;;;;;;;;;;;;;;;;5066417;28;19917;-58
2022/06/30 12:30:52;;;;;;;;;;;;;;;;;;5067620;28;20294;-57
2022/06/30 12:33:18;;;;;;;;;;;;;;;;;;5067209;28;19912;-58
2022/06/30 12:35:44;;;;;;;;;;;;;;;;;;5068178;28;19908;-56
2022/06/30 12:38:11;;;;;;;;;;;;;;;;;;5074113;28;20313;-55
2022/06/30 12:40:38;;;;;;;;;;;;;;;;;;5071275;28;19912;-54
2022/06/30 12:43:04;;;;;;;;;;;;;;;;;;5069287;28;19959;-56
2022/06/30 12:45:30;;;;;;;;;;;;;;;;;;5066559;28;19958;-55
2022/06/30 12:47:57;;;;;;;;;;;;;;;;;;5065804;28;20329;-57
2022/06/30 12:50:23;;;;;;;;;;;;;;;;;;5066299;28;19905;-53
2022/06/30 12:52:49;;;;;;;;;;;;;;;;;;5067092;28;20430;-56
2022/06/30 12:55:15;;;;;;;;;;;;;;;;;;5071805;28;19908;-52
2022/06/30 12:57:40;;;;;;;;;;;;;;;;;;5068312;28;20410;-55
2022/06/30 13:00:07;;;;;;;;;;;;;;;;;;5068510;28;19920;-56
2022/06/30 13:02:33;;;;;;;;;;;;;;;;;;5069005;28;19939;-55
2022/06/30 13:04:59;;;;;;;;;;;;;;;;;;5068979;28;19948;-56
2022/06/30 13:07:25;;;;;;;;;;;;;;;;;;5068816;28;19961;-55
2022/06/30 13:09:51;;;;;;;;;;;;;;;;;;5068633;28;19909;-54
2022/06/30 13:12:17;;;;;;;;;;;;;;;;;;5060597;28;19967;-56
2022/06/30 13:14:43;;;;;;;;;;;;;;;;;;5068620;28;19912;-54
2022/06/30 13:17:08;;;;;;;;;;;;;;;;;;5068883;28;20344;-56
2022/06/30 13:19:34;;;;;;;;;;;;;;;;;;5070901;28;19920;-54
2022/06/30 13:22:00;;;;;;;;;;;;;;;;;;5073301;28;19908;-55
2022/06/30 13:24:26;;;;;;;;;;;;;;;;;;5083117;28;19918;-51
2022/06/30 13:26:55;;;;;;;;;;;;;;;;;;5082298;28;19915;-56
2022/06/30 13:29:23;;;;;;;;;;;;;;;;;;5058039;28;20398;-57
2022/06/30 13:31:50;;;;;;;;;;;;;;;;;;5073881;28;19904;-55
2022/06/30 13:34:16;;;;;;;;;;;;;;;;;;5088090;28;20407;-55
2022/06/30 13:36:42;;;;;;;;;;;;;;;;;;5068349;28;19912;-56
2022/06/30 13:39:08;;;;;;;;;;;;;;;;;;5068371;28;20003;-55
2022/06/30 13:41:34;;;;;;;;;;;;;;;;;;5068191;28;19991;-57
2022/06/30 13:44:00;;;;;;;;;;;;;;;;;;5068897;28;19916;-56
2022/06/30 13:46:27;;;;;;;;;;;;;;;;;;5067902;28;20529;-54
2022/06/30 13:48:54;;;;;;;;;;;;;;;;;;5068440;28;19912;-57
2022/06/30 13:51:20;;;;;;;;;;;;;;;;;;5067758;28;19953;-55
2022/06/30 13:53:45;;;;;;;;;;;;;;;;;;5075792;28;19908;-55
2022/06/30 13:56:11;;;;;;;;;;;;;;;;;;5080585;28;20007;-57
2022/06/30 13:58:37;;;;;;;;;;;;;;;;;;5063874;28;20340;-57
2022/06/30 14:01:05;;;;;;;;;;;;;;;;;;5066948;28;19982;-54
2022/06/30 14:03:31;;;;;;;;;;;;;;;;;;5070034;28;19912;-55
2022/06/30 14:05:56;;;;;;;;;;;;;;;;;;5069067;28;19924;-56
2022/06/30 14:08:22;;;;;;;;;;;;;;;;;;5068718;28;19912;-56
2022/06/30 14:10:48;;;;;;;;;;;;;;;;;;5066636;28;19916;-54
2022/06/30 14:13:14;;;;;;;;;;;;;;;;;;5066480;28;20334;-54
2022/06/30 14:15:40;;;;;;;;;;;;;;;;;;5072225;28;19907;-53
2022/06/30 14:18:06;;;;;;;;;;;;;;;;;;5066007;28;19930;-53
2022/06/30 14:20:32;;;;;;;;;;;;;;;;;;5065740;28;20069;-53
2022/06/30 14:22:58;;;;;;;;;;;;;;;;;;5070651;28;19955;-53
2022/06/30 14:25:25;;;;;;;;;;;;;;;;;;5065149;28;19912;-50
2022/06/30 14:27:52;;;;;;;;;;;;;;;;;;5058996;28;19908;-55
2022/06/30 14:30:19;;;;;;;;;;;;;;;;;;5065866;28;20291;-57
2022/06/30 14:32:46;;;;;;;;;;;;;;;;;;5067411;28;19959;-54
2022/06/30 14:35:13;;;;;;;;;;;;;;;;;;5066988;28;19919;-55
2022/06/30 14:37:39;;;;;;;;;;;;;;;;;;5067006;28;19908;-56
2022/06/30 14:40:05;;;;;;;;;;;;;;;;;;5065246;28;19919;-54
2022/06/30 14:42:50;;;;;;;;;;;;;;;;;;5065615;28;19912;-56
2022/06/30 14:45:18;;;;;;;;;;;;;;;;;;5070667;28;19919;-56
2022/06/30 14:47:43;;;;;;;;;;;;;;;;;;5079327;28;19974;-53
2022/06/30 14:50:10;;;;;;;;;;;;;;;;;;5072919;28;20337;-56
2022/06/30 14:52:37;;;;;;;;;;;;;;;;;;5071061;28;19916;-53
2022/06/30 14:55:04;;;;;;;;;;;;;;;;;;5072192;28;19905;-53
2022/06/30 14:57:31;;;;;;;;;;;;;;;;;;5091662;28;20416;-55
2022/06/30 14:59:57;;;;;;;;;;;;;;;;;;5072683;28;20220;-54
2022/06/30 15:02:23;;;;;;;;;;;;;;;;;;5070856;28;19961;-54
2022/06/30 15:04:50;;;;;;;;;;;;;;;;;;5071397;28;19999;-55
2022/06/30 15:07:17;;;;;;;;;;;;;;;;;;5071152;28;19927;-52
2022/06/30 15:09:43;;;;;;;;;;;;;;;;;;5069507;28;19935;-53
2022/06/30 15:12:09;;;;;;;;;;;;;;;;;;5078612;28;20396;-55
2022/06/30 15:14:36;;;;;;;;;;;;;;;;;;5084505;28;19908;-51
2022/06/30 15:17:02;;;;;;;;;;;;;;;;;;5071754;28;19909;-55
2022/06/30 15:19:28;;;;;;;;;;;;;;;;;;5075664;28;19912;-56
2022/06/30 15:24:38;;;;;;;;;;;;;;;;;;5082342;28;19914;-54
2022/06/30 15:27:06;;;;;;;;;;;;;;;;;;5070655;28;19907;-55
2022/06/30 15:29:33;;;;;;;;;;;;;;;;;;5071017;28;19942;-54
2022/06/30 15:31:58;;;;;;;;;;;;;;;;;;5070835;28;20359;-55
2022/06/30 15:34:25;;;;;;;;;;;;;;;;;;5070576;28;19904;-50
2022/06/30 15:36:51;;;;;;;;;;;;;;;;;;5069641;28;19953;-53
2022/06/30 15:39:17;;;;;;;;;;;;;;;;;;5070378;28;19920;-52
2022/06/30 15:41:42;;;;;;;;;;;;;;;;;;5070768;28;19913;-56
2022/06/30 15:44:08;;;;;;;;;;;;;;;;;;5072232;28;19915;-55
2022/06/30 15:46:36;;;;;;;0.80;0.52;;;;;;;;;;5068991;28;20409;-51
2022/06/30 15:49:03;;;;;;;0.55;0.55;;;;;;;;;;5083337;28;20882;-53
2022/06/30 15:51:29;;;;;;;2.42;1.15;;;;;;;;;;5075552;28;20043;-58
2022/06/30 15:53:56;;;;;;;1.15;0.60;;;;;;;;;;5088588;28;20029;-58
2022/06/30 15:56:23;;;;;;;2.08;0.80;;;;;;;;;;5080886;28;20075;-57
2022/06/30 15:58:49;;;;;;;2.40;0.52;;;;;;;;;;5069640;28;20035;-58
2022/06/30 16:01:15;;;;;;;0.63;0.55;;;;;;;;;;5067187;28;20407;-56
2022/06/30 16:03:42;;;;;;;1.00;0.65;;;;;;;;;;5069867;28;20027;-56
2022/06/30 16:06:10;;;;;;;0.40;0.40;;;;;;;;;;5069712;28;20016;-56
2022/06/30 16:08:36;;;;;;;0.60;0.50;;;;;;;;;;5081949;28;20437;-57
2022/06/30 16:11:02;;;;;;;0.77;0.60;;;;;;;;;;5084946;28;20038;-58
2022/06/30 16:13:28;;;;;;;1.67;0.60;;;;;;;;;;5069900;28;20411;-58
2022/06/30 16:15:55;;;;;;;0.73;0.60;;;;;;;;;;5068966;28;20039;-57
2022/06/30 16:18:23;;;;;;;0.98;0.47;;;;;;;;;;5069590;28;20507;-53
2022/06/30 16:20:50;;;;;;;0.73;0.68;;;;;;;;;;5081345;28;20032;-52
2022/06/30 16:23:16;;;;;;;1.45;0.45;;;;;;;;;;5078758;28;20498;-50
2022/06/30 16:25:42;;;;;;;0.77;0.50;;;;;;;;;;5073195;28;20576;-52
2022/06/30 16:28:08;;;;;;;0.90;0.45;;;;;;;;;;5069092;28;20086;-51